sensor_id;sensor_type;location;lat;lon;timestamp;temperature;humidity
22633;DHT22;11483;55.828;37.488;2023-10-19T00:00:35;6.40;99.90
22633;DHT22;11483;55.828;37.488;2023-10-19T00:03:04;6.30;99.90
22633;DHT22;11483;55.828;37.488;2023-10-19T00:05:32;6.30;99.90
22633;DHT22;11483;55.828;37.488;2023-10-19T00:07:59;6.30;99.90
22633;DHT22;11483;55.828;37.488;2023-10-19T00:10:26;6.30;99.90
22633;DHT22;11483;55.828;37.488;2023-10-19T00:12:58;6.20;99.90
22633;DHT22;11483;55.828;37.488;2023-10-19T00:15:36;6.20;99.90
22633;DHT22;11483;55.828;37.488;2023-10-19T00:18:06;6.20;99.90
22633;DHT22;11483;55.828;37.488;2023-10-19T00:20:45;6.20;99.90
22633;DHT22;11483;55.828;37.488;2023-10-19T00:23:12;6.20;99.90
22633;DHT22;11483;55.828;37.488;2023-10-19T00:25:47;6.20;99.90
22633;DHT22;11483;55.828;37.488;2023-10-19T00:28:20;6.20;99.90
22633;DHT22;11483;55.828;37.488;2023-10-19T00:30:48;6.20;99.90
22633;DHT22;11483;55.828;37.488;2023-10-19T00:33:17;6.20;99.90
22633;DHT22;11483;55.828;37.488;2023-10-19T00:35:50;6.30;99.90
22633;DHT22;11483;55.828;37.488;2023-10-19T00:38:26;6.20;99.90
22633;DHT22;11483;55.828;37.488;2023-10-19T00:40:53;6.30;99.90
22633;DHT22;11483;55.828;37.488;2023-10-19T00:43:33;6.30;99.90
22633;DHT22;11483;55.828;37.488;2023-10-19T00:46:16;6.30;99.90
22633;DHT22;11483;55.828;37.488;2023-10-19T00:51:17;6.30;99.90
22633;DHT22;11483;55.828;37.488;2023-10-19T00:54:07;6.40;99.90
22633;DHT22;11483;55.828;37.488;2023-10-19T00:56:41;6.40;99.90
22633;DHT22;11483;55.828;37.488;2023-10-19T00:59:12;6.40;99.90
22633;DHT22;11483;55.828;37.488;2023-10-19T01:01:43;6.40;99.90
22633;DHT22;11483;55.828;37.488;2023-10-19T01:04:14;6.40;99.90
22633;DHT22;11483;55.828;37.488;2023-10-19T01:06:46;6.40;99.90
22633;DHT22;11483;55.828;37.488;2023-10-19T01:09:25;6.40;99.90
22633;DHT22;11483;55.828;37.488;2023-10-19T01:11:53;6.40;99.90
22633;DHT22;11483;55.828;37.488;2023-10-19T01:14:22;6.40;99.90
22633;DHT22;11483;55.828;37.488;2023-10-19T01:16:54;6.40;99.90
22633;DHT22;11483;55.828;37.488;2023-10-19T01:19:23;6.40;99.90
22633;DHT22;11483;55.828;37.488;2023-10-19T01:21:49;6.40;99.90
22633;DHT22;11483;55.828;37.488;2023-10-19T01:24:20;6.40;99.90
22633;DHT22;11483;55.828;37.488;2023-10-19T01:26:55;6.40;99.90
22633;DHT22;11483;55.828;37.488;2023-10-19T01:29:22;6.30;99.90
22633;DHT22;11483;55.828;37.488;2023-10-19T01:31:52;6.40;99.90
22633;DHT22;11483;55.828;37.488;2023-10-19T01:34:37;6.30;99.90
22633;DHT22;11483;55.828;37.488;2023-10-19T01:37:03;6.40;99.90
22633;DHT22;11483;55.828;37.488;2023-10-19T01:39:36;6.40;99.90
22633;DHT22;11483;55.828;37.488;2023-10-19T01:42:04;6.50;99.90
22633;DHT22;11483;55.828;37.488;2023-10-19T01:44:31;6.40;99.90
22633;DHT22;11483;55.828;37.488;2023-10-19T01:46:57;6.50;99.90
22633;DHT22;11483;55.828;37.488;2023-10-19T01:49:23;6.50;99.90
22633;DHT22;11483;55.828;37.488;2023-10-19T01:51:52;6.60;99.90
22633;DHT22;11483;55.828;37.488;2023-10-19T01:54:20;6.60;99.90
22633;DHT22;11483;55.828;37.488;2023-10-19T01:56:54;6.60;99.90
22633;DHT22;11483;55.828;37.488;2023-10-19T01:59:26;6.60;99.90
22633;DHT22;11483;55.828;37.488;2023-10-19T02:01:53;6.60;99.90
22633;DHT22;11483;55.828;37.488;2023-10-19T02:04:20;6.60;99.90
22633;DHT22;11483;55.828;37.488;2023-10-19T02:06:49;6.60;99.90
22633;DHT22;11483;55.828;37.488;2023-10-19T02:09:18;6.60;99.90
22633;DHT22;11483;55.828;37.488;2023-10-19T02:11:55;6.60;99.90
22633;DHT22;11483;55.828;37.488;2023-10-19T02:14:22;6.60;99.90
22633;DHT22;11483;55.828;37.488;2023-10-19T02:16:54;6.60;99.90
22633;DHT22;11483;55.828;37.488;2023-10-19T02:19:26;6.60;99.90
22633;DHT22;11483;55.828;37.488;2023-10-19T02:21:57;6.60;99.90
22633;DHT22;11483;55.828;37.488;2023-10-19T02:24:23;6.60;99.90
22633;DHT22;11483;55.828;37.488;2023-10-19T02:26:55;6.60;99.90
22633;DHT22;11483;55.828;37.488;2023-10-19T02:29:22;6.50;99.90
22633;DHT22;11483;55.828;37.488;2023-10-19T02:31:48;6.50;99.90
22633;DHT22;11483;55.828;37.488;2023-10-19T02:34:15;6.60;99.90
22633;DHT22;11483;55.828;37.488;2023-10-19T02:36:42;6.50;99.90
22633;DHT22;11483;55.828;37.488;2023-10-19T02:39:10;6.50;99.90
22633;DHT22;11483;55.828;37.488;2023-10-19T02:41:38;6.50;99.90
22633;DHT22;11483;55.828;37.488;2023-10-19T02:44:08;6.50;99.90
22633;DHT22;11483;55.828;37.488;2023-10-19T02:46:45;6.50;99.90
22633;DHT22;11483;55.828;37.488;2023-10-19T02:49:14;6.50;99.90
22633;DHT22;11483;55.828;37.488;2023-10-19T02:51:44;6.40;99.90
22633;DHT22;11483;55.828;37.488;2023-10-19T02:54:12;6.40;99.90
22633;DHT22;11483;55.828;37.488;2023-10-19T02:56:52;6.40;99.90
22633;DHT22;11483;55.828;37.488;2023-10-19T02:59:20;6.40;99.90
22633;DHT22;11483;55.828;37.488;2023-10-19T03:01:54;6.40;99.90
22633;DHT22;11483;55.828;37.488;2023-10-19T03:04:27;6.40;99.90
22633;DHT22;11483;55.828;37.488;2023-10-19T03:06:56;6.40;99.90
22633;DHT22;11483;55.828;37.488;2023-10-19T03:09:22;6.40;99.90
22633;DHT22;11483;55.828;37.488;2023-10-19T03:11:56;6.40;99.90
22633;DHT22;11483;55.828;37.488;2023-10-19T03:14:35;6.30;99.90
22633;DHT22;11483;55.828;37.488;2023-10-19T03:17:03;6.30;99.90
22633;DHT22;11483;55.828;37.488;2023-10-19T03:19:29;6.30;99.90
22633;DHT22;11483;55.828;37.488;2023-10-19T03:21:55;6.30;99.90
22633;DHT22;11483;55.828;37.488;2023-10-19T03:24:25;6.00;99.90
22633;DHT22;11483;55.828;37.488;2023-10-19T03:27:13;6.40;99.90
22633;DHT22;11483;55.828;37.488;2023-10-19T03:29:46;6.30;99.90
22633;DHT22;11483;55.828;37.488;2023-10-19T03:32:14;6.40;99.90
22633;DHT22;11483;55.828;37.488;2023-10-19T03:34:41;6.30;99.90
22633;DHT22;11483;55.828;37.488;2023-10-19T03:37:13;6.30;99.90
22633;DHT22;11483;55.828;37.488;2023-10-19T03:39:40;6.30;99.90
22633;DHT22;11483;55.828;37.488;2023-10-19T03:42:07;6.30;99.90
22633;DHT22;11483;55.828;37.488;2023-10-19T03:44:34;6.30;99.90
22633;DHT22;11483;55.828;37.488;2023-10-19T03:47:15;6.30;99.90
22633;DHT22;11483;55.828;37.488;2023-10-19T03:49:51;6.30;99.90
22633;DHT22;11483;55.828;37.488;2023-10-19T03:52:18;6.30;99.90
22633;DHT22;11483;55.828;37.488;2023-10-19T03:54:43;6.40;99.90
22633;DHT22;11483;55.828;37.488;2023-10-19T03:57:12;6.40;99.90
22633;DHT22;11483;55.828;37.488;2023-10-19T03:59:39;6.40;99.90
22633;DHT22;11483;55.828;37.488;2023-10-19T04:02:05;6.40;99.90
22633;DHT22;11483;55.828;37.488;2023-10-19T04:04:45;6.40;99.90
22633;DHT22;11483;55.828;37.488;2023-10-19T04:07:12;6.40;99.90
22633;DHT22;11483;55.828;37.488;2023-10-19T04:09:50;6.50;99.90
22633;DHT22;11483;55.828;37.488;2023-10-19T04:12:27;6.40;99.90
22633;DHT22;11483;55.828;37.488;2023-10-19T04:14:57;6.50;99.90
22633;DHT22;11483;55.828;37.488;2023-10-19T04:17:23;6.50;99.90
22633;DHT22;11483;55.828;37.488;2023-10-19T04:19:50;6.50;99.90
22633;DHT22;11483;55.828;37.488;2023-10-19T04:22:20;6.50;99.90
22633;DHT22;11483;55.828;37.488;2023-10-19T04:24:52;6.50;99.90
22633;DHT22;11483;55.828;37.488;2023-10-19T04:27:18;6.60;99.90
22633;DHT22;11483;55.828;37.488;2023-10-19T04:29:49;6.50;99.90
22633;DHT22;11483;55.828;37.488;2023-10-19T04:32:16;6.50;99.90
22633;DHT22;11483;55.828;37.488;2023-10-19T04:34:51;6.60;99.90
22633;DHT22;11483;55.828;37.488;2023-10-19T04:37:17;6.60;99.90
22633;DHT22;11483;55.828;37.488;2023-10-19T04:39:47;6.60;99.90
22633;DHT22;11483;55.828;37.488;2023-10-19T04:42:15;6.60;99.90
22633;DHT22;11483;55.828;37.488;2023-10-19T04:44:41;6.60;99.90
22633;DHT22;11483;55.828;37.488;2023-10-19T04:47:07;6.70;99.90
22633;DHT22;11483;55.828;37.488;2023-10-19T04:49:32;6.70;99.90
22633;DHT22;11483;55.828;37.488;2023-10-19T04:51:58;6.70;99.90
22633;DHT22;11483;55.828;37.488;2023-10-19T04:54:24;6.70;99.90
22633;DHT22;11483;55.828;37.488;2023-10-19T04:56:50;6.70;99.90
22633;DHT22;11483;55.828;37.488;2023-10-19T04:59:18;6.70;99.90
22633;DHT22;11483;55.828;37.488;2023-10-19T05:01:44;6.70;99.90
22633;DHT22;11483;55.828;37.488;2023-10-19T05:04:10;6.70;99.90
22633;DHT22;11483;55.828;37.488;2023-10-19T05:06:38;6.70;99.90
22633;DHT22;11483;55.828;37.488;2023-10-19T05:09:04;6.70;99.90
22633;DHT22;11483;55.828;37.488;2023-10-19T05:11:31;6.80;99.90
22633;DHT22;11483;55.828;37.488;2023-10-19T05:13:57;6.80;99.90
22633;DHT22;11483;55.828;37.488;2023-10-19T05:16:23;6.80;99.90
22633;DHT22;11483;55.828;37.488;2023-10-19T05:18:49;6.90;99.90
22633;DHT22;11483;55.828;37.488;2023-10-19T05:21:14;6.90;99.90
22633;DHT22;11483;55.828;37.488;2023-10-19T05:23:41;6.90;99.90
22633;DHT22;11483;55.828;37.488;2023-10-19T05:26:06;7.00;99.90
22633;DHT22;11483;55.828;37.488;2023-10-19T05:28:32;7.00;99.90
22633;DHT22;11483;55.828;37.488;2023-10-19T05:30:59;7.00;99.90
22633;DHT22;11483;55.828;37.488;2023-10-19T05:33:26;7.00;99.90
22633;DHT22;11483;55.828;37.488;2023-10-19T05:35:52;7.00;99.90
22633;DHT22;11483;55.828;37.488;2023-10-19T05:38:18;7.00;99.90
22633;DHT22;11483;55.828;37.488;2023-10-19T05:40:45;7.10;99.90
22633;DHT22;11483;55.828;37.488;2023-10-19T05:43:12;7.00;99.90
22633;DHT22;11483;55.828;37.488;2023-10-19T05:45:38;7.20;99.90
22633;DHT22;11483;55.828;37.488;2023-10-19T05:48:05;7.20;99.90
22633;DHT22;11483;55.828;37.488;2023-10-19T05:50:35;7.30;99.90
22633;DHT22;11483;55.828;37.488;2023-10-19T05:53:03;7.30;99.90
22633;DHT22;11483;55.828;37.488;2023-10-19T05:55:29;7.30;99.90
22633;DHT22;11483;55.828;37.488;2023-10-19T05:57:55;7.30;99.90
22633;DHT22;11483;55.828;37.488;2023-10-19T06:00:21;7.40;99.90
22633;DHT22;11483;55.828;37.488;2023-10-19T06:02:51;7.50;99.90
22633;DHT22;11483;55.828;37.488;2023-10-19T06:05:18;7.50;99.90
22633;DHT22;11483;55.828;37.488;2023-10-19T06:07:46;7.70;99.90
22633;DHT22;11483;55.828;37.488;2023-10-19T06:10:14;7.80;99.90
22633;DHT22;11483;55.828;37.488;2023-10-19T06:12:48;7.80;99.90
22633;DHT22;11483;55.828;37.488;2023-10-19T06:15:17;7.80;99.90
22633;DHT22;11483;55.828;37.488;2023-10-19T06:17:44;7.80;99.90
22633;DHT22;11483;55.828;37.488;2023-10-19T06:20:12;7.80;99.90
22633;DHT22;11483;55.828;37.488;2023-10-19T06:22:53;7.90;99.90
22633;DHT22;11483;55.828;37.488;2023-10-19T06:25:22;7.80;99.90
22633;DHT22;11483;55.828;37.488;2023-10-19T06:27:49;7.80;99.90
22633;DHT22;11483;55.828;37.488;2023-10-19T06:30:16;7.80;99.90
22633;DHT22;11483;55.828;37.488;2023-10-19T06:35:19;7.70;99.90
22633;DHT22;11483;55.828;37.488;2023-10-19T06:37:46;7.70;99.90
22633;DHT22;11483;55.828;37.488;2023-10-19T06:40:13;7.70;99.90
22633;DHT22;11483;55.828;37.488;2023-10-19T06:42:46;7.80;99.90
22633;DHT22;11483;55.828;37.488;2023-10-19T06:45:13;7.90;99.90
22633;DHT22;11483;55.828;37.488;2023-10-19T06:47:48;8.00;99.90
22633;DHT22;11483;55.828;37.488;2023-10-19T06:50:16;8.10;99.90
22633;DHT22;11483;55.828;37.488;2023-10-19T06:52:44;8.20;99.90
22633;DHT22;11483;55.828;37.488;2023-10-19T06:55:11;8.20;99.90
22633;DHT22;11483;55.828;37.488;2023-10-19T06:57:43;8.30;99.90
22633;DHT22;11483;55.828;37.488;2023-10-19T07:00:14;8.40;99.90
22633;DHT22;11483;55.828;37.488;2023-10-19T07:02:51;8.50;99.90
22633;DHT22;11483;55.828;37.488;2023-10-19T07:05:19;8.60;99.90
22633;DHT22;11483;55.828;37.488;2023-10-19T07:07:52;8.80;99.90
22633;DHT22;11483;55.828;37.488;2023-10-19T07:10:20;8.90;99.90
22633;DHT22;11483;55.828;37.488;2023-10-19T07:12:48;9.00;99.90
22633;DHT22;11483;55.828;37.488;2023-10-19T07:15:14;9.10;99.90
22633;DHT22;11483;55.828;37.488;2023-10-19T07:17:43;9.10;99.90
22633;DHT22;11483;55.828;37.488;2023-10-19T07:20:11;9.00;99.90
22633;DHT22;11483;55.828;37.488;2023-10-19T07:22:51;9.00;99.90
22633;DHT22;11483;55.828;37.488;2023-10-19T07:25:17;8.90;99.90
22633;DHT22;11483;55.828;37.488;2023-10-19T07:27:49;8.90;99.90
22633;DHT22;11483;55.828;37.488;2023-10-19T07:30:17;8.80;99.90
22633;DHT22;11483;55.828;37.488;2023-10-19T07:32:50;8.80;99.90
22633;DHT22;11483;55.828;37.488;2023-10-19T07:35:25;8.90;99.90
22633;DHT22;11483;55.828;37.488;2023-10-19T07:37:52;8.80;99.90
22633;DHT22;11483;55.828;37.488;2023-10-19T07:40:18;8.40;99.90
22633;DHT22;11483;55.828;37.488;2023-10-19T07:42:45;9.00;99.90
22633;DHT22;11483;55.828;37.488;2023-10-19T07:45:12;9.20;99.90
22633;DHT22;11483;55.828;37.488;2023-10-19T07:47:41;9.30;99.90
22633;DHT22;11483;55.828;37.488;2023-10-19T07:50:08;9.30;99.90
22633;DHT22;11483;55.828;37.488;2023-10-19T07:52:39;9.30;99.90
22633;DHT22;11483;55.828;37.488;2023-10-19T07:55:05;9.30;99.90
22633;DHT22;11483;55.828;37.488;2023-10-19T07:57:32;9.40;99.90
22633;DHT22;11483;55.828;37.488;2023-10-19T07:59:59;9.30;99.90
22633;DHT22;11483;55.828;37.488;2023-10-19T08:02:25;9.30;99.90
22633;DHT22;11483;55.828;37.488;2023-10-19T08:04:52;9.30;99.90
22633;DHT22;11483;55.828;37.488;2023-10-19T08:07:18;9.40;99.90
22633;DHT22;11483;55.828;37.488;2023-10-19T08:09:45;9.50;99.90
22633;DHT22;11483;55.828;37.488;2023-10-19T08:12:10;9.70;99.90
22633;DHT22;11483;55.828;37.488;2023-10-19T08:14:39;9.90;99.90
22633;DHT22;11483;55.828;37.488;2023-10-19T08:17:05;10.10;99.90
22633;DHT22;11483;55.828;37.488;2023-10-19T08:19:34;10.30;99.90
22633;DHT22;11483;55.828;37.488;2023-10-19T08:22:01;10.50;99.90
22633;DHT22;11483;55.828;37.488;2023-10-19T08:24:28;10.70;99.90
22633;DHT22;11483;55.828;37.488;2023-10-19T08:26:56;10.80;99.90
22633;DHT22;11483;55.828;37.488;2023-10-19T08:29:22;10.90;99.90
22633;DHT22;11483;55.828;37.488;2023-10-19T08:31:49;10.90;99.90
22633;DHT22;11483;55.828;37.488;2023-10-19T08:34:15;10.60;99.90
22633;DHT22;11483;55.828;37.488;2023-10-19T08:36:41;10.30;99.90
22633;DHT22;11483;55.828;37.488;2023-10-19T08:39:09;10.00;99.90
22633;DHT22;11483;55.828;37.488;2023-10-19T08:41:37;9.80;99.90
22633;DHT22;11483;55.828;37.488;2023-10-19T08:44:06;9.70;99.90
22633;DHT22;11483;55.828;37.488;2023-10-19T08:46:42;9.70;99.90
22633;DHT22;11483;55.828;37.488;2023-10-19T08:49:12;9.60;99.90
22633;DHT22;11483;55.828;37.488;2023-10-19T08:51:39;9.70;99.90
22633;DHT22;11483;55.828;37.488;2023-10-19T08:54:06;9.60;99.90
22633;DHT22;11483;55.828;37.488;2023-10-19T08:56:32;9.40;99.90
22633;DHT22;11483;55.828;37.488;2023-10-19T08:59:01;9.30;99.90
22633;DHT22;11483;55.828;37.488;2023-10-19T09:01:28;9.30;99.90
22633;DHT22;11483;55.828;37.488;2023-10-19T09:04:00;9.30;99.90
22633;DHT22;11483;55.828;37.488;2023-10-19T09:06:26;9.40;99.90
22633;DHT22;11483;55.828;37.488;2023-10-19T09:08:55;9.50;99.90
22633;DHT22;11483;55.828;37.488;2023-10-19T09:11:24;9.60;99.90
22633;DHT22;11483;55.828;37.488;2023-10-19T09:13:53;9.70;99.90
22633;DHT22;11483;55.828;37.488;2023-10-19T09:16:21;9.80;99.90
22633;DHT22;11483;55.828;37.488;2023-10-19T09:18:48;9.80;99.90
22633;DHT22;11483;55.828;37.488;2023-10-19T09:21:19;9.80;99.90
22633;DHT22;11483;55.828;37.488;2023-10-19T09:23:56;9.80;99.90
22633;DHT22;11483;55.828;37.488;2023-10-19T09:26:23;9.80;99.90
22633;DHT22;11483;55.828;37.488;2023-10-19T09:28:50;9.80;99.90
22633;DHT22;11483;55.828;37.488;2023-10-19T09:31:17;9.70;99.90
22633;DHT22;11483;55.828;37.488;2023-10-19T09:33:46;9.50;99.90
22633;DHT22;11483;55.828;37.488;2023-10-19T09:36:13;9.30;99.90
22633;DHT22;11483;55.828;37.488;2023-10-19T09:38:50;9.30;99.90
22633;DHT22;11483;55.828;37.488;2023-10-19T09:41:23;9.20;99.90
22633;DHT22;11483;55.828;37.488;2023-10-19T09:44:01;9.10;99.90
22633;DHT22;11483;55.828;37.488;2023-10-19T09:46:31;9.00;99.90
22633;DHT22;11483;55.828;37.488;2023-10-19T09:48:58;9.10;99.90
22633;DHT22;11483;55.828;37.488;2023-10-19T09:51:24;9.10;99.90
22633;DHT22;11483;55.828;37.488;2023-10-19T09:55:06;9.20;99.90
22633;DHT22;11483;55.828;37.488;2023-10-19T09:57:01;9.30;99.90
22633;DHT22;11483;55.828;37.488;2023-10-19T09:59:29;9.30;99.90
22633;DHT22;11483;55.828;37.488;2023-10-19T10:02:13;9.40;99.90
22633;DHT22;11483;55.828;37.488;2023-10-19T10:04:40;9.40;99.90
22633;DHT22;11483;55.828;37.488;2023-10-19T10:07:08;9.50;99.90
22633;DHT22;11483;55.828;37.488;2023-10-19T10:09:40;9.40;99.90
22633;DHT22;11483;55.828;37.488;2023-10-19T10:12:20;9.40;99.90
22633;DHT22;11483;55.828;37.488;2023-10-19T10:15:04;9.40;99.90
22633;DHT22;11483;55.828;37.488;2023-10-19T10:17:35;9.50;99.90
22633;DHT22;11483;55.828;37.488;2023-10-19T10:22:41;9.70;99.90
22633;DHT22;11483;55.828;37.488;2023-10-19T10:25:08;9.80;99.90
22633;DHT22;11483;55.828;37.488;2023-10-19T10:27:38;9.90;99.90
22633;DHT22;11483;55.828;37.488;2023-10-19T10:30:14;10.00;99.90
22633;DHT22;11483;55.828;37.488;2023-10-19T10:32:52;10.10;99.90
22633;DHT22;11483;55.828;37.488;2023-10-19T10:38:12;10.30;99.90
22633;DHT22;11483;55.828;37.488;2023-10-19T10:40:46;10.50;99.90
22633;DHT22;11483;55.828;37.488;2023-10-19T10:43:17;10.50;99.90
22633;DHT22;11483;55.828;37.488;2023-10-19T10:45:43;10.50;99.90
22633;DHT22;11483;55.828;37.488;2023-10-19T10:48:17;10.80;99.90
22633;DHT22;11483;55.828;37.488;2023-10-19T10:50:44;11.00;99.90
22633;DHT22;11483;55.828;37.488;2023-10-19T10:53:13;11.00;99.90
22633;DHT22;11483;55.828;37.488;2023-10-19T10:55:40;11.00;99.90
22633;DHT22;11483;55.828;37.488;2023-10-19T10:58:07;11.00;99.90
22633;DHT22;11483;55.828;37.488;2023-10-19T11:00:33;11.00;99.90
22633;DHT22;11483;55.828;37.488;2023-10-19T11:03:07;11.00;99.90
22633;DHT22;11483;55.828;37.488;2023-10-19T11:05:34;10.90;99.90
22633;DHT22;11483;55.828;37.488;2023-10-19T11:10:45;10.80;99.90
22633;DHT22;11483;55.828;37.488;2023-10-19T11:13:13;10.70;99.90
22633;DHT22;11483;55.828;37.488;2023-10-19T11:15:50;10.80;99.90
22633;DHT22;11483;55.828;37.488;2023-10-19T11:21:02;10.70;99.90
22633;DHT22;11483;55.828;37.488;2023-10-19T11:23:49;10.70;99.90
22633;DHT22;11483;55.828;37.488;2023-10-19T11:26:20;10.70;99.90
22633;DHT22;11483;55.828;37.488;2023-10-19T11:28:47;10.70;99.90
22633;DHT22;11483;55.828;37.488;2023-10-19T11:31:22;10.70;99.90
22633;DHT22;11483;55.828;37.488;2023-10-19T11:33:49;10.70;99.90
22633;DHT22;11483;55.828;37.488;2023-10-19T11:36:17;10.70;99.90
22633;DHT22;11483;55.828;37.488;2023-10-19T11:38:44;10.70;99.90
22633;DHT22;11483;55.828;37.488;2023-10-19T11:41:11;10.70;99.90
22633;DHT22;11483;55.828;37.488;2023-10-19T11:43:41;10.70;99.90
22633;DHT22;11483;55.828;37.488;2023-10-19T11:46:09;10.70;99.90
22633;DHT22;11483;55.828;37.488;2023-10-19T11:48:36;10.60;99.90
22633;DHT22;11483;55.828;37.488;2023-10-19T11:51:03;10.60;99.90
22633;DHT22;11483;55.828;37.488;2023-10-19T11:53:34;10.60;99.90
22633;DHT22;11483;55.828;37.488;2023-10-19T11:56:10;10.70;99.90
22633;DHT22;11483;55.828;37.488;2023-10-19T11:58:38;10.80;99.90
22633;DHT22;11483;55.828;37.488;2023-10-19T12:01:06;10.70;99.90
22633;DHT22;11483;55.828;37.488;2023-10-19T12:03:41;10.60;99.90
22633;DHT22;11483;55.828;37.488;2023-10-19T12:06:08;10.60;99.90
22633;DHT22;11483;55.828;37.488;2023-10-19T12:08:35;10.50;99.90
22633;DHT22;11483;55.828;37.488;2023-10-19T12:11:02;10.30;99.90
22633;DHT22;11483;55.828;37.488;2023-10-19T12:13:30;10.30;99.90
22633;DHT22;11483;55.828;37.488;2023-10-19T12:15:57;10.10;99.90
22633;DHT22;11483;55.828;37.488;2023-10-19T12:18:24;10.00;99.90
22633;DHT22;11483;55.828;37.488;2023-10-19T12:20:52;10.00;99.90
22633;DHT22;11483;55.828;37.488;2023-10-19T12:23:22;10.00;99.90
22633;DHT22;11483;55.828;37.488;2023-10-19T12:25:52;9.90;99.90
22633;DHT22;11483;55.828;37.488;2023-10-19T12:28:19;9.90;99.90
22633;DHT22;11483;55.828;37.488;2023-10-19T12:30:44;9.90;99.90
22633;DHT22;11483;55.828;37.488;2023-10-19T12:33:11;9.80;99.90
22633;DHT22;11483;55.828;37.488;2023-10-19T12:35:43;9.60;99.90
22633;DHT22;11483;55.828;37.488;2023-10-19T12:38:18;9.60;99.90
22633;DHT22;11483;55.828;37.488;2023-10-19T12:40:47;9.60;99.90
22633;DHT22;11483;55.828;37.488;2023-10-19T12:43:14;9.70;99.90
22633;DHT22;11483;55.828;37.488;2023-10-19T12:45:41;9.70;99.90
22633;DHT22;11483;55.828;37.488;2023-10-19T12:48:09;9.70;99.90
22633;DHT22;11483;55.828;37.488;2023-10-19T12:50:37;9.70;99.90
22633;DHT22;11483;55.828;37.488;2023-10-19T12:53:03;9.70;99.90
22633;DHT22;11483;55.828;37.488;2023-10-19T12:55:30;9.70;99.90
22633;DHT22;11483;55.828;37.488;2023-10-19T12:57:59;9.60;99.90
22633;DHT22;11483;55.828;37.488;2023-10-19T13:00:33;9.60;99.90
22633;DHT22;11483;55.828;37.488;2023-10-19T13:03:09;9.40;99.90
22633;DHT22;11483;55.828;37.488;2023-10-19T13:05:39;9.30;99.90
22633;DHT22;11483;55.828;37.488;2023-10-19T13:08:13;9.10;99.90
22633;DHT22;11483;55.828;37.488;2023-10-19T13:10:40;8.90;99.90
22633;DHT22;11483;55.828;37.488;2023-10-19T13:13:09;8.90;99.90
22633;DHT22;11483;55.828;37.488;2023-10-19T13:15:43;8.70;99.90
22633;DHT22;11483;55.828;37.488;2023-10-19T13:18:11;8.60;99.90
22633;DHT22;11483;55.828;37.488;2023-10-19T13:20:39;8.50;99.90
22633;DHT22;11483;55.828;37.488;2023-10-19T13:23:07;8.50;99.90
22633;DHT22;11483;55.828;37.488;2023-10-19T13:25:37;8.60;99.90
22633;DHT22;11483;55.828;37.488;2023-10-19T13:28:20;8.60;99.90
22633;DHT22;11483;55.828;37.488;2023-10-19T13:30:48;8.60;99.90
22633;DHT22;11483;55.828;37.488;2023-10-19T13:33:15;8.60;99.90
22633;DHT22;11483;55.828;37.488;2023-10-19T13:35:42;8.60;99.90
22633;DHT22;11483;55.828;37.488;2023-10-19T13:38:09;8.60;99.90
22633;DHT22;11483;55.828;37.488;2023-10-19T13:40:36;8.60;99.90
22633;DHT22;11483;55.828;37.488;2023-10-19T13:43:04;8.60;99.90
22633;DHT22;11483;55.828;37.488;2023-10-19T13:45:49;8.60;99.90
22633;DHT22;11483;55.828;37.488;2023-10-19T13:48:15;8.60;99.90
22633;DHT22;11483;55.828;37.488;2023-10-19T13:50:43;8.60;99.90
22633;DHT22;11483;55.828;37.488;2023-10-19T13:53:13;8.60;99.90
22633;DHT22;11483;55.828;37.488;2023-10-19T13:55:41;8.60;99.90
22633;DHT22;11483;55.828;37.488;2023-10-19T13:58:07;8.60;99.90
22633;DHT22;11483;55.828;37.488;2023-10-19T14:00:34;8.60;99.90
22633;DHT22;11483;55.828;37.488;2023-10-19T14:03:00;8.60;99.90
22633;DHT22;11483;55.828;37.488;2023-10-19T14:05:27;8.60;99.90
22633;DHT22;11483;55.828;37.488;2023-10-19T14:07:54;8.60;99.90
22633;DHT22;11483;55.828;37.488;2023-10-19T14:10:21;8.50;99.90
22633;DHT22;11483;55.828;37.488;2023-10-19T14:12:47;8.40;99.90
22633;DHT22;11483;55.828;37.488;2023-10-19T14:15:20;8.30;99.90
22633;DHT22;11483;55.828;37.488;2023-10-19T14:17:48;8.20;99.90
22633;DHT22;11483;55.828;37.488;2023-10-19T14:20:15;8.30;99.90
22633;DHT22;11483;55.828;37.488;2023-10-19T14:22:46;8.20;99.90
22633;DHT22;11483;55.828;37.488;2023-10-19T14:25:13;8.30;99.90
22633;DHT22;11483;55.828;37.488;2023-10-19T14:30:07;8.30;99.90
22633;DHT22;11483;55.828;37.488;2023-10-19T14:32:33;8.30;99.90
22633;DHT22;11483;55.828;37.488;2023-10-19T14:34:59;8.30;99.90
22633;DHT22;11483;55.828;37.488;2023-10-19T14:37:25;8.20;99.90
22633;DHT22;11483;55.828;37.488;2023-10-19T14:39:50;8.20;99.90
22633;DHT22;11483;55.828;37.488;2023-10-19T14:42:16;8.10;99.90
22633;DHT22;11483;55.828;37.488;2023-10-19T14:44:42;8.10;99.90
22633;DHT22;11483;55.828;37.488;2023-10-19T14:47:08;8.00;99.90
22633;DHT22;11483;55.828;37.488;2023-10-19T14:49:34;8.00;99.90
22633;DHT22;11483;55.828;37.488;2023-10-19T14:52:00;8.00;99.90
22633;DHT22;11483;55.828;37.488;2023-10-19T14:54:26;7.90;99.90
22633;DHT22;11483;55.828;37.488;2023-10-19T14:56:54;7.90;99.90
22633;DHT22;11483;55.828;37.488;2023-10-19T14:59:20;7.80;99.90
22633;DHT22;11483;55.828;37.488;2023-10-19T15:01:46;7.80;99.90
22633;DHT22;11483;55.828;37.488;2023-10-19T15:04:12;7.80;99.90
22633;DHT22;11483;55.828;37.488;2023-10-19T15:06:38;7.80;99.90
22633;DHT22;11483;55.828;37.488;2023-10-19T15:09:04;7.80;99.90
22633;DHT22;11483;55.828;37.488;2023-10-19T15:11:30;7.80;99.90
22633;DHT22;11483;55.828;37.488;2023-10-19T15:13:56;7.80;99.90
22633;DHT22;11483;55.828;37.488;2023-10-19T15:16:23;7.80;99.90
22633;DHT22;11483;55.828;37.488;2023-10-19T15:18:49;7.80;99.90
22633;DHT22;11483;55.828;37.488;2023-10-19T15:21:15;7.80;99.90
22633;DHT22;11483;55.828;37.488;2023-10-19T15:23:42;7.80;99.90
22633;DHT22;11483;55.828;37.488;2023-10-19T15:26:08;8.50;99.90
22633;DHT22;11483;55.828;37.488;2023-10-19T15:28:34;7.70;99.90
22633;DHT22;11483;55.828;37.488;2023-10-19T15:31:00;7.70;99.90
22633;DHT22;11483;55.828;37.488;2023-10-19T15:33:26;7.70;99.90
22633;DHT22;11483;55.828;37.488;2023-10-19T15:35:54;7.70;99.90
22633;DHT22;11483;55.828;37.488;2023-10-19T15:38:21;7.70;99.90
22633;DHT22;11483;55.828;37.488;2023-10-19T15:40:48;7.70;99.90
22633;DHT22;11483;55.828;37.488;2023-10-19T15:43:15;7.80;99.90
22633;DHT22;11483;55.828;37.488;2023-10-19T15:45:41;7.70;99.90
22633;DHT22;11483;55.828;37.488;2023-10-19T15:48:10;7.70;99.90
22633;DHT22;11483;55.828;37.488;2023-10-19T15:50:39;7.70;99.90
22633;DHT22;11483;55.828;37.488;2023-10-19T15:53:08;7.70;99.90
22633;DHT22;11483;55.828;37.488;2023-10-19T15:55:35;7.80;99.90
22633;DHT22;11483;55.828;37.488;2023-10-19T15:58:01;7.80;99.90
22633;DHT22;11483;55.828;37.488;2023-10-19T16:00:27;7.70;99.90